sensor_id;sensor_type;location;lat;lon;timestamp;P1;durP1;ratioP1;P2;durP2;ratioP2
37409;SDS011;23275;48.914;12.566;2023-12-29T00:01:47;7.85;;;5.18;;
37409;SDS011;23275;48.914;12.566;2023-12-29T00:04:14;9.15;;;5.03;;
37409;SDS011;23275;48.914;12.566;2023-12-29T00:06:40;8.98;;;5.45;;
37409;SDS011;23275;48.914;12.566;2023-12-29T00:09:06;11.02;;;5.70;;
37409;SDS011;23275;48.914;12.566;2023-12-29T00:11:32;8.90;;;5.43;;
37409;SDS011;23275;48.914;12.566;2023-12-29T00:13:58;9.48;;;5.80;;
37409;SDS011;23275;48.914;12.566;2023-12-29T00:16:24;11.40;;;6.25;;
37409;SDS011;23275;48.914;12.566;2023-12-29T00:18:49;10.40;;;6.43;;
37409;SDS011;23275;48.914;12.566;2023-12-29T00:21:15;11.63;;;6.22;;
37409;SDS011;23275;48.914;12.566;2023-12-29T00:23:41;11.35;;;6.53;;
37409;SDS011;23275;48.914;12.566;2023-12-29T00:26:06;11.45;;;6.88;;
37409;SDS011;23275;48.914;12.566;2023-12-29T00:28:32;9.68;;;6.07;;
37409;SDS011;23275;48.914;12.566;2023-12-29T00:31:00;9.23;;;5.60;;
37409;SDS011;23275;48.914;12.566;2023-12-29T00:33:26;8.18;;;5.20;;
37409;SDS011;23275;48.914;12.566;2023-12-29T00:35:51;9.90;;;5.75;;
37409;SDS011;23275;48.914;12.566;2023-12-29T00:38:17;8.75;;;5.55;;
37409;SDS011;23275;48.914;12.566;2023-12-29T00:40:42;10.10;;;5.40;;
37409;SDS011;23275;48.914;12.566;2023-12-29T00:43:08;8.88;;;4.55;;
37409;SDS011;23275;48.914;12.566;2023-12-29T00:45:34;9.88;;;4.95;;
37409;SDS011;23275;48.914;12.566;2023-12-29T00:48:01;10.27;;;5.63;;
37409;SDS011;23275;48.914;12.566;2023-12-29T00:50:27;10.63;;;5.03;;
37409;SDS011;23275;48.914;12.566;2023-12-29T00:52:52;8.93;;;4.85;;
37409;SDS011;23275;48.914;12.566;2023-12-29T00:55:18;8.57;;;5.03;;
37409;SDS011;23275;48.914;12.566;2023-12-29T00:57:44;9.32;;;4.55;;
37409;SDS011;23275;48.914;12.566;2023-12-29T01:00:11;6.97;;;4.00;;
37409;SDS011;23275;48.914;12.566;2023-12-29T01:02:37;7.57;;;5.20;;
37409;SDS011;23275;48.914;12.566;2023-12-29T01:05:03;10.70;;;5.00;;
37409;SDS011;23275;48.914;12.566;2023-12-29T01:07:29;8.50;;;4.78;;
37409;SDS011;23275;48.914;12.566;2023-12-29T01:09:54;8.27;;;4.85;;
37409;SDS011;23275;48.914;12.566;2023-12-29T01:12:20;9.50;;;5.15;;
37409;SDS011;23275;48.914;12.566;2023-12-29T01:14:46;12.70;;;5.00;;
37409;SDS011;23275;48.914;12.566;2023-12-29T01:17:11;12.52;;;5.10;;
37409;SDS011;23275;48.914;12.566;2023-12-29T01:19:37;10.07;;;5.50;;
37409;SDS011;23275;48.914;12.566;2023-12-29T01:22:02;10.32;;;4.85;;
37409;SDS011;23275;48.914;12.566;2023-12-29T01:24:28;9.60;;;5.50;;
37409;SDS011;23275;48.914;12.566;2023-12-29T01:26:53;9.75;;;4.88;;
37409;SDS011;23275;48.914;12.566;2023-12-29T01:29:19;9.02;;;4.80;;
37409;SDS011;23275;48.914;12.566;2023-12-29T01:31:45;8.63;;;4.65;;
37409;SDS011;23275;48.914;12.566;2023-12-29T01:34:10;8.38;;;5.13;;
37409;SDS011;23275;48.914;12.566;2023-12-29T01:36:36;10.88;;;5.40;;
37409;SDS011;23275;48.914;12.566;2023-12-29T01:39:01;10.05;;;5.03;;
37409;SDS011;23275;48.914;12.566;2023-12-29T01:41:28;7.72;;;4.90;;
37409;SDS011;23275;48.914;12.566;2023-12-29T01:46:26;9.40;;;5.25;;
37409;SDS011;23275;48.914;12.566;2023-12-29T01:48:58;8.57;;;4.88;;
37409;SDS011;23275;48.914;12.566;2023-12-29T01:51:24;11.27;;;5.00;;
37409;SDS011;23275;48.914;12.566;2023-12-29T01:53:52;9.48;;;4.95;;
37409;SDS011;23275;48.914;12.566;2023-12-29T01:56:19;9.50;;;5.25;;
37409;SDS011;23275;48.914;12.566;2023-12-29T01:58:45;9.85;;;5.05;;
37409;SDS011;23275;48.914;12.566;2023-12-29T02:01:14;8.70;;;5.13;;
37409;SDS011;23275;48.914;12.566;2023-12-29T02:03:41;10.80;;;5.30;;
37409;SDS011;23275;48.914;12.566;2023-12-29T02:06:08;8.88;;;4.68;;
37409;SDS011;23275;48.914;12.566;2023-12-29T02:08:34;9.88;;;5.30;;
37409;SDS011;23275;48.914;12.566;2023-12-29T02:11:01;10.95;;;5.30;;
37409;SDS011;23275;48.914;12.566;2023-12-29T02:13:27;8.43;;;4.85;;
37409;SDS011;23275;48.914;12.566;2023-12-29T02:15:52;9.93;;;5.43;;
37409;SDS011;23275;48.914;12.566;2023-12-29T02:18:22;8.10;;;4.95;;
37409;SDS011;23275;48.914;12.566;2023-12-29T02:20:48;8.10;;;5.05;;
37409;SDS011;23275;48.914;12.566;2023-12-29T02:23:14;8.90;;;4.80;;
37409;SDS011;23275;48.914;12.566;2023-12-29T02:25:39;8.63;;;4.88;;
37409;SDS011;23275;48.914;12.566;2023-12-29T02:28:15;8.55;;;4.93;;
37409;SDS011;23275;48.914;12.566;2023-12-29T02:31:00;8.88;;;5.18;;
37409;SDS011;23275;48.914;12.566;2023-12-29T02:33:31;9.10;;;5.05;;
37409;SDS011;23275;48.914;12.566;2023-12-29T02:36:02;10.77;;;5.40;;
37409;SDS011;23275;48.914;12.566;2023-12-29T02:38:30;10.38;;;5.85;;
37409;SDS011;23275;48.914;12.566;2023-12-29T02:40:56;7.97;;;4.82;;
37409;SDS011;23275;48.914;12.566;2023-12-29T02:43:22;8.77;;;5.28;;
37409;SDS011;23275;48.914;12.566;2023-12-29T02:45:47;8.98;;;5.50;;
37409;SDS011;23275;48.914;12.566;2023-12-29T02:48:13;9.15;;;5.15;;
37409;SDS011;23275;48.914;12.566;2023-12-29T02:50:38;10.13;;;5.82;;
37409;SDS011;23275;48.914;12.566;2023-12-29T02:53:04;8.25;;;5.03;;
37409;SDS011;23275;48.914;12.566;2023-12-29T02:55:29;9.07;;;5.60;;
37409;SDS011;23275;48.914;12.566;2023-12-29T02:57:55;8.50;;;4.97;;
37409;SDS011;23275;48.914;12.566;2023-12-29T03:00:21;12.55;;;5.60;;
37409;SDS011;23275;48.914;12.566;2023-12-29T03:02:46;8.80;;;4.85;;
37409;SDS011;23275;48.914;12.566;2023-12-29T03:05:12;9.80;;;5.07;;
37409;SDS011;23275;48.914;12.566;2023-12-29T03:07:38;8.82;;;4.97;;
37409;SDS011;23275;48.914;12.566;2023-12-29T03:10:05;10.25;;;5.15;;
37409;SDS011;23275;48.914;12.566;2023-12-29T03:12:32;8.15;;;4.78;;
37409;SDS011;23275;48.914;12.566;2023-12-29T03:14:57;10.15;;;5.20;;
37409;SDS011;23275;48.914;12.566;2023-12-29T03:17:23;6.97;;;4.40;;
37409;SDS011;23275;48.914;12.566;2023-12-29T03:19:48;8.18;;;5.05;;
37409;SDS011;23275;48.914;12.566;2023-12-29T03:22:14;9.40;;;6.07;;
37409;SDS011;23275;48.914;12.566;2023-12-29T03:24:40;11.20;;;6.15;;
37409;SDS011;23275;48.914;12.566;2023-12-29T03:27:06;10.93;;;5.47;;
37409;SDS011;23275;48.914;12.566;2023-12-29T03:29:32;10.18;;;5.68;;
37409;SDS011;23275;48.914;12.566;2023-12-29T03:31:57;9.80;;;5.47;;
37409;SDS011;23275;48.914;12.566;2023-12-29T03:34:23;10.43;;;5.78;;
37409;SDS011;23275;48.914;12.566;2023-12-29T03:36:48;11.75;;;6.97;;
37409;SDS011;23275;48.914;12.566;2023-12-29T03:39:14;8.57;;;5.40;;
37409;SDS011;23275;48.914;12.566;2023-12-29T03:41:40;7.75;;;4.63;;
37409;SDS011;23275;48.914;12.566;2023-12-29T03:44:05;10.38;;;5.18;;
37409;SDS011;23275;48.914;12.566;2023-12-29T03:46:31;10.45;;;5.28;;
37409;SDS011;23275;48.914;12.566;2023-12-29T03:48:58;10.65;;;5.70;;
37409;SDS011;23275;48.914;12.566;2023-12-29T03:51:23;8.07;;;5.32;;
37409;SDS011;23275;48.914;12.566;2023-12-29T03:53:49;9.98;;;5.18;;
37409;SDS011;23275;48.914;12.566;2023-12-29T03:56:16;9.55;;;5.40;;
37409;SDS011;23275;48.914;12.566;2023-12-29T03:58:42;10.13;;;5.28;;
37409;SDS011;23275;48.914;12.566;2023-12-29T04:01:09;9.15;;;5.43;;
37409;SDS011;23275;48.914;12.566;2023-12-29T04:03:38;9.25;;;5.30;;
37409;SDS011;23275;48.914;12.566;2023-12-29T04:06:05;11.05;;;5.40;;
37409;SDS011;23275;48.914;12.566;2023-12-29T04:08:31;12.15;;;5.55;;
37409;SDS011;23275;48.914;12.566;2023-12-29T04:10:57;13.15;;;6.88;;
37409;SDS011;23275;48.914;12.566;2023-12-29T04:13:23;11.90;;;5.75;;
37409;SDS011;23275;48.914;12.566;2023-12-29T04:15:48;11.18;;;6.32;;
37409;SDS011;23275;48.914;12.566;2023-12-29T04:18:14;11.80;;;6.13;;
37409;SDS011;23275;48.914;12.566;2023-12-29T04:20:39;8.50;;;5.07;;
37409;SDS011;23275;48.914;12.566;2023-12-29T04:23:06;8.07;;;4.75;;
37409;SDS011;23275;48.914;12.566;2023-12-29T04:25:32;8.48;;;4.70;;
37409;SDS011;23275;48.914;12.566;2023-12-29T04:27:58;9.57;;;5.30;;
37409;SDS011;23275;48.914;12.566;2023-12-29T04:30:24;6.93;;;4.43;;
37409;SDS011;23275;48.914;12.566;2023-12-29T04:32:49;8.65;;;5.53;;
37409;SDS011;23275;48.914;12.566;2023-12-29T04:35:15;9.88;;;5.00;;
37409;SDS011;23275;48.914;12.566;2023-12-29T04:37:41;8.95;;;4.70;;
37409;SDS011;23275;48.914;12.566;2023-12-29T04:40:09;8.32;;;4.50;;
37409;SDS011;23275;48.914;12.566;2023-12-29T04:42:35;9.25;;;4.90;;
37409;SDS011;23275;48.914;12.566;2023-12-29T04:45:00;9.15;;;4.82;;
37409;SDS011;23275;48.914;12.566;2023-12-29T04:47:26;8.85;;;4.63;;
37409;SDS011;23275;48.914;12.566;2023-12-29T04:49:51;7.80;;;4.53;;
37409;SDS011;23275;48.914;12.566;2023-12-29T04:52:17;8.57;;;5.10;;
37409;SDS011;23275;48.914;12.566;2023-12-29T04:54:43;8.55;;;4.20;;
37409;SDS011;23275;48.914;12.566;2023-12-29T04:57:08;8.13;;;3.90;;
37409;SDS011;23275;48.914;12.566;2023-12-29T04:59:34;9.15;;;4.85;;
37409;SDS011;23275;48.914;12.566;2023-12-29T05:01:59;8.98;;;4.30;;
37409;SDS011;23275;48.914;12.566;2023-12-29T05:04:25;9.80;;;4.43;;
37409;SDS011;23275;48.914;12.566;2023-12-29T05:06:50;8.85;;;3.83;;
37409;SDS011;23275;48.914;12.566;2023-12-29T05:09:16;9.27;;;4.70;;
37409;SDS011;23275;48.914;12.566;2023-12-29T05:11:41;7.38;;;4.28;;
37409;SDS011;23275;48.914;12.566;2023-12-29T05:14:07;8.82;;;4.65;;
37409;SDS011;23275;48.914;12.566;2023-12-29T05:16:33;9.30;;;4.72;;
37409;SDS011;23275;48.914;12.566;2023-12-29T05:18:58;7.88;;;4.65;;
37409;SDS011;23275;48.914;12.566;2023-12-29T05:21:24;9.20;;;4.88;;
37409;SDS011;23275;48.914;12.566;2023-12-29T05:23:51;9.05;;;4.82;;
37409;SDS011;23275;48.914;12.566;2023-12-29T05:26:17;10.00;;;4.45;;
37409;SDS011;23275;48.914;12.566;2023-12-29T05:28:43;9.15;;;5.07;;
37409;SDS011;23275;48.914;12.566;2023-12-29T05:31:09;8.27;;;4.57;;
37409;SDS011;23275;48.914;12.566;2023-12-29T05:33:34;8.48;;;4.60;;
37409;SDS011;23275;48.914;12.566;2023-12-29T05:36:05;7.97;;;4.47;;
37409;SDS011;23275;48.914;12.566;2023-12-29T05:38:33;7.00;;;4.03;;
37409;SDS011;23275;48.914;12.566;2023-12-29T05:40:59;9.77;;;4.30;;
37409;SDS011;23275;48.914;12.566;2023-12-29T05:43:26;9.07;;;4.75;;
37409;SDS011;23275;48.914;12.566;2023-12-29T05:45:52;8.45;;;4.18;;
37409;SDS011;23275;48.914;12.566;2023-12-29T05:48:17;6.95;;;4.28;;
37409;SDS011;23275;48.914;12.566;2023-12-29T05:50:43;6.88;;;4.03;;
37409;SDS011;23275;48.914;12.566;2023-12-29T05:53:08;7.63;;;3.80;;
37409;SDS011;23275;48.914;12.566;2023-12-29T05:55:34;7.22;;;4.22;;
37409;SDS011;23275;48.914;12.566;2023-12-29T05:57:59;9.25;;;4.53;;
37409;SDS011;23275;48.914;12.566;2023-12-29T06:00:25;8.63;;;4.20;;
37409;SDS011;23275;48.914;12.566;2023-12-29T06:02:51;7.18;;;4.47;;
37409;SDS011;23275;48.914;12.566;2023-12-29T06:05:16;7.60;;;3.92;;
37409;SDS011;23275;48.914;12.566;2023-12-29T06:07:42;7.80;;;4.05;;
37409;SDS011;23275;48.914;12.566;2023-12-29T06:10:07;6.50;;;3.92;;
37409;SDS011;23275;48.914;12.566;2023-12-29T06:12:34;6.85;;;4.00;;
37409;SDS011;23275;48.914;12.566;2023-12-29T06:15:00;9.95;;;4.60;;
37409;SDS011;23275;48.914;12.566;2023-12-29T06:17:26;7.30;;;3.60;;
37409;SDS011;23275;48.914;12.566;2023-12-29T06:19:51;7.60;;;3.90;;
37409;SDS011;23275;48.914;12.566;2023-12-29T06:22:17;7.43;;;4.13;;
37409;SDS011;23275;48.914;12.566;2023-12-29T06:24:43;7.10;;;3.80;;
37409;SDS011;23275;48.914;12.566;2023-12-29T06:27:10;5.20;;;3.40;;
37409;SDS011;23275;48.914;12.566;2023-12-29T06:29:36;7.35;;;4.03;;
37409;SDS011;23275;48.914;12.566;2023-12-29T06:32:04;6.38;;;4.00;;
37409;SDS011;23275;48.914;12.566;2023-12-29T06:34:30;7.88;;;3.72;;
37409;SDS011;23275;48.914;12.566;2023-12-29T06:36:56;5.60;;;3.58;;
37409;SDS011;23275;48.914;12.566;2023-12-29T06:39:21;10.40;;;3.85;;
37409;SDS011;23275;48.914;12.566;2023-12-29T06:41:48;8.25;;;3.95;;
37409;SDS011;23275;48.914;12.566;2023-12-29T06:44:13;6.07;;;3.88;;
37409;SDS011;23275;48.914;12.566;2023-12-29T06:46:39;9.05;;;4.30;;
37409;SDS011;23275;48.914;12.566;2023-12-29T06:49:08;7.20;;;3.83;;
37409;SDS011;23275;48.914;12.566;2023-12-29T06:51:34;5.82;;;3.60;;
37409;SDS011;23275;48.914;12.566;2023-12-29T06:54:05;7.57;;;3.35;;
37409;SDS011;23275;48.914;12.566;2023-12-29T06:56:32;5.65;;;3.63;;
37409;SDS011;23275;48.914;12.566;2023-12-29T06:58:57;8.00;;;3.78;;
37409;SDS011;23275;48.914;12.566;2023-12-29T07:01:23;5.80;;;3.80;;
37409;SDS011;23275;48.914;12.566;2023-12-29T07:03:49;8.18;;;3.67;;
37409;SDS011;23275;48.914;12.566;2023-12-29T07:06:15;7.50;;;3.67;;
37409;SDS011;23275;48.914;12.566;2023-12-29T07:08:41;8.07;;;3.60;;
37409;SDS011;23275;48.914;12.566;2023-12-29T07:11:10;6.53;;;3.63;;
37409;SDS011;23275;48.914;12.566;2023-12-29T07:13:39;7.03;;;3.55;;
37409;SDS011;23275;48.914;12.566;2023-12-29T07:16:04;5.72;;;3.72;;
37409;SDS011;23275;48.914;12.566;2023-12-29T07:18:30;6.57;;;3.90;;
37409;SDS011;23275;48.914;12.566;2023-12-29T07:20:56;8.23;;;3.70;;
37409;SDS011;23275;48.914;12.566;2023-12-29T07:23:21;6.18;;;3.70;;
37409;SDS011;23275;48.914;12.566;2023-12-29T07:25:47;6.25;;;3.58;;
37409;SDS011;23275;48.914;12.566;2023-12-29T07:28:13;6.90;;;3.78;;
37409;SDS011;23275;48.914;12.566;2023-12-29T07:30:38;6.13;;;3.42;;
37409;SDS011;23275;48.914;12.566;2023-12-29T07:33:04;6.18;;;3.33;;
37409;SDS011;23275;48.914;12.566;2023-12-29T07:35:30;8.38;;;3.83;;
37409;SDS011;23275;48.914;12.566;2023-12-29T07:37:55;7.75;;;3.85;;
37409;SDS011;23275;48.914;12.566;2023-12-29T07:40:21;6.35;;;3.90;;
37409;SDS011;23275;48.914;12.566;2023-12-29T07:42:47;6.63;;;4.13;;
37409;SDS011;23275;48.914;12.566;2023-12-29T07:45:16;10.27;;;4.03;;
37409;SDS011;23275;48.914;12.566;2023-12-29T07:47:42;7.63;;;4.00;;
37409;SDS011;23275;48.914;12.566;2023-12-29T07:50:08;6.50;;;4.18;;
37409;SDS011;23275;48.914;12.566;2023-12-29T07:52:34;7.78;;;3.67;;
37409;SDS011;23275;48.914;12.566;2023-12-29T07:54:59;7.25;;;3.92;;
37409;SDS011;23275;48.914;12.566;2023-12-29T07:57:25;7.07;;;3.83;;
37409;SDS011;23275;48.914;12.566;2023-12-29T07:59:51;8.52;;;3.60;;
37409;SDS011;23275;48.914;12.566;2023-12-29T08:02:16;6.63;;;3.78;;
37409;SDS011;23275;48.914;12.566;2023-12-29T08:04:42;6.50;;;3.60;;
37409;SDS011;23275;48.914;12.566;2023-12-29T08:07:08;8.07;;;3.88;;
37409;SDS011;23275;48.914;12.566;2023-12-29T08:09:34;6.20;;;3.30;;
37409;SDS011;23275;48.914;12.566;2023-12-29T08:12:00;5.18;;;2.72;;
37409;SDS011;23275;48.914;12.566;2023-12-29T08:14:26;6.30;;;3.45;;
37409;SDS011;23275;48.914;12.566;2023-12-29T08:16:51;8.38;;;4.65;;
37409;SDS011;23275;48.914;12.566;2023-12-29T08:19:17;10.05;;;4.75;;
37409;SDS011;23275;48.914;12.566;2023-12-29T08:21:42;6.22;;;3.50;;
37409;SDS011;23275;48.914;12.566;2023-12-29T08:24:08;5.82;;;3.65;;
37409;SDS011;23275;48.914;12.566;2023-12-29T08:26:33;5.13;;;3.50;;
37409;SDS011;23275;48.914;12.566;2023-12-29T08:28:59;6.00;;;3.85;;
37409;SDS011;23275;48.914;12.566;2023-12-29T08:31:25;7.63;;;4.05;;
37409;SDS011;23275;48.914;12.566;2023-12-29T08:33:52;8.27;;;4.05;;
37409;SDS011;23275;48.914;12.566;2023-12-29T08:36:18;6.53;;;3.53;;
37409;SDS011;23275;48.914;12.566;2023-12-29T08:38:46;8.15;;;4.07;;
37409;SDS011;23275;48.914;12.566;2023-12-29T08:41:15;6.70;;;4.22;;
37409;SDS011;23275;48.914;12.566;2023-12-29T08:43:40;6.82;;;3.45;;
37409;SDS011;23275;48.914;12.566;2023-12-29T08:46:06;8.48;;;3.80;;
37409;SDS011;23275;48.914;12.566;2023-12-29T08:48:32;7.55;;;3.85;;
37409;SDS011;23275;48.914;12.566;2023-12-29T08:50:59;5.72;;;3.78;;
37409;SDS011;23275;48.914;12.566;2023-12-29T08:53:24;6.57;;;3.80;;
37409;SDS011;23275;48.914;12.566;2023-12-29T08:55:50;8.73;;;3.50;;
37409;SDS011;23275;48.914;12.566;2023-12-29T08:58:15;5.47;;;3.08;;
37409;SDS011;23275;48.914;12.566;2023-12-29T09:00:41;5.30;;;2.67;;
37409;SDS011;23275;48.914;12.566;2023-12-29T09:03:07;7.07;;;3.17;;
37409;SDS011;23275;48.914;12.566;2023-12-29T09:05:32;4.43;;;2.70;;
37409;SDS011;23275;48.914;12.566;2023-12-29T09:07:58;6.22;;;3.20;;
37409;SDS011;23275;48.914;12.566;2023-12-29T09:10:23;6.75;;;2.67;;
37409;SDS011;23275;48.914;12.566;2023-12-29T09:12:49;5.28;;;3.28;;
37409;SDS011;23275;48.914;12.566;2023-12-29T09:15:14;7.55;;;4.07;;
37409;SDS011;23275;48.914;12.566;2023-12-29T09:17:40;10.18;;;5.60;;
37409;SDS011;23275;48.914;12.566;2023-12-29T09:20:06;8.65;;;5.13;;
37409;SDS011;23275;48.914;12.566;2023-12-29T09:22:33;8.55;;;4.90;;
37409;SDS011;23275;48.914;12.566;2023-12-29T09:24:59;8.35;;;4.60;;
37409;SDS011;23275;48.914;12.566;2023-12-29T09:27:24;8.52;;;4.45;;
37409;SDS011;23275;48.914;12.566;2023-12-29T09:29:50;7.00;;;3.80;;
37409;SDS011;23275;48.914;12.566;2023-12-29T09:32:16;7.95;;;4.05;;
37409;SDS011;23275;48.914;12.566;2023-12-29T09:34:41;7.30;;;3.25;;
37409;SDS011;23275;48.914;12.566;2023-12-29T09:37:07;6.25;;;3.17;;
37409;SDS011;23275;48.914;12.566;2023-12-29T09:39:33;4.70;;;2.80;;
37409;SDS011;23275;48.914;12.566;2023-12-29T09:41:59;6.82;;;2.88;;
37409;SDS011;23275;48.914;12.566;2023-12-29T09:44:28;5.10;;;2.72;;
37409;SDS011;23275;48.914;12.566;2023-12-29T09:46:55;4.88;;;2.80;;
37409;SDS011;23275;48.914;12.566;2023-12-29T09:52:01;5.03;;;2.72;;
37409;SDS011;23275;48.914;12.566;2023-12-29T09:54:27;4.97;;;2.55;;
37409;SDS011;23275;48.914;12.566;2023-12-29T09:56:54;5.40;;;2.13;;
37409;SDS011;23275;48.914;12.566;2023-12-29T09:59:20;3.97;;;2.20;;
37409;SDS011;23275;48.914;12.566;2023-12-29T10:01:47;4.68;;;2.10;;
37409;SDS011;23275;48.914;12.566;2023-12-29T10:04:13;4.25;;;2.00;;
37409;SDS011;23275;48.914;12.566;2023-12-29T10:06:41;4.82;;;1.92;;
37409;SDS011;23275;48.914;12.566;2023-12-29T10:09:12;3.15;;;1.83;;
37409;SDS011;23275;48.914;12.566;2023-12-29T10:11:39;5.10;;;2.10;;
37409;SDS011;23275;48.914;12.566;2023-12-29T10:14:17;4.80;;;2.05;;
37409;SDS011;23275;48.914;12.566;2023-12-29T10:16:52;3.53;;;2.03;;
37409;SDS011;23275;48.914;12.566;2023-12-29T10:19:27;4.40;;;2.17;;
37409;SDS011;23275;48.914;12.566;2023-12-29T10:22:18;3.35;;;1.98;;
37409;SDS011;23275;48.914;12.566;2023-12-29T10:24:49;4.45;;;2.50;;
37409;SDS011;23275;48.914;12.566;2023-12-29T10:27:16;6.07;;;2.70;;
37409;SDS011;23275;48.914;12.566;2023-12-29T10:29:41;6.70;;;2.40;;
37409;SDS011;23275;48.914;12.566;2023-12-29T10:32:10;4.18;;;2.28;;
37409;SDS011;23275;48.914;12.566;2023-12-29T10:34:36;5.68;;;2.65;;
37409;SDS011;23275;48.914;12.566;2023-12-29T10:37:02;5.45;;;2.60;;
37409;SDS011;23275;48.914;12.566;2023-12-29T10:39:33;4.28;;;2.60;;
37409;SDS011;23275;48.914;12.566;2023-12-29T10:42:02;5.88;;;2.55;;
37409;SDS011;23275;48.914;12.566;2023-12-29T10:44:36;3.88;;;1.90;;
37409;SDS011;23275;48.914;12.566;2023-12-29T10:47:09;4.83;;;2.57;;
37409;SDS011;23275;48.914;12.566;2023-12-29T10:49:35;5.72;;;2.30;;
37409;SDS011;23275;48.914;12.566;2023-12-29T10:52:10;4.82;;;2.40;;
37409;SDS011;23275;48.914;12.566;2023-12-29T10:54:40;4.55;;;2.10;;
37409;SDS011;23275;48.914;12.566;2023-12-29T10:57:07;5.80;;;2.15;;
37409;SDS011;23275;48.914;12.566;2023-12-29T10:59:34;3.80;;;1.90;;
37409;SDS011;23275;48.914;12.566;2023-12-29T11:02:00;4.22;;;2.22;;
37409;SDS011;23275;48.914;12.566;2023-12-29T11:04:28;4.57;;;2.33;;
37409;SDS011;23275;48.914;12.566;2023-12-29T11:06:54;5.13;;;2.55;;
37409;SDS011;23275;48.914;12.566;2023-12-29T11:09:26;3.88;;;2.00;;
37409;SDS011;23275;48.914;12.566;2023-12-29T11:11:57;5.30;;;2.13;;
37409;SDS011;23275;48.914;12.566;2023-12-29T11:14:25;5.07;;;2.50;;
37409;SDS011;23275;48.914;12.566;2023-12-29T11:16:51;4.78;;;2.55;;
37409;SDS011;23275;48.914;12.566;2023-12-29T11:19:19;5.13;;;2.20;;
37409;SDS011;23275;48.914;12.566;2023-12-29T11:21:46;5.70;;;2.65;;
37409;SDS011;23275;48.914;12.566;2023-12-29T11:24:14;4.70;;;2.65;;
37409;SDS011;23275;48.914;12.566;2023-12-29T11:26:39;4.78;;;2.33;;
37409;SDS011;23275;48.914;12.566;2023-12-29T11:29:07;4.70;;;2.58;;
37409;SDS011;23275;48.914;12.566;2023-12-29T11:31:33;4.00;;;2.38;;
37409;SDS011;23275;48.914;12.566;2023-12-29T11:34:00;4.43;;;2.20;;
37409;SDS011;23275;48.914;12.566;2023-12-29T11:36:33;5.72;;;2.55;;
37409;SDS011;23275;48.914;12.566;2023-12-29T11:39:21;4.00;;;2.30;;
37409;SDS011;23275;48.914;12.566;2023-12-29T11:42:12;4.00;;;2.45;;
37409;SDS011;23275;48.914;12.566;2023-12-29T11:44:44;6.55;;;2.78;;
37409;SDS011;23275;48.914;12.566;2023-12-29T11:47:56;4.35;;;2.30;;
37409;SDS011;23275;48.914;12.566;2023-12-29T11:50:03;6.00;;;2.67;;
37409;SDS011;23275;48.914;12.566;2023-12-29T11:52:33;5.97;;;2.40;;
37409;SDS011;23275;48.914;12.566;2023-12-29T11:55:12;6.15;;;2.60;;
37409;SDS011;23275;48.914;12.566;2023-12-29T11:57:40;4.60;;;2.80;;
37409;SDS011;23275;48.914;12.566;2023-12-29T12:00:06;5.28;;;2.53;;
37409;SDS011;23275;48.914;12.566;2023-12-29T12:02:33;4.63;;;2.42;;
37409;SDS011;23275;48.914;12.566;2023-12-29T12:04:58;4.63;;;2.42;;
37409;SDS011;23275;48.914;12.566;2023-12-29T12:09:50;5.65;;;2.42;;
37409;SDS011;23275;48.914;12.566;2023-12-29T12:18:10;5.43;;;2.40;;
37409;SDS011;23275;48.914;12.566;2023-12-29T12:20:36;6.47;;;2.72;;
37409;SDS011;23275;48.914;12.566;2023-12-29T12:23:20;5.57;;;2.65;;
37409;SDS011;23275;48.914;12.566;2023-12-29T12:25:49;4.47;;;2.65;;
37409;SDS011;23275;48.914;12.566;2023-12-29T12:28:16;5.63;;;2.60;;
37409;SDS011;23275;48.914;12.566;2023-12-29T12:30:43;4.50;;;2.50;;
37409;SDS011;23275;48.914;12.566;2023-12-29T12:33:08;4.07;;;2.42;;
37409;SDS011;23275;48.914;12.566;2023-12-29T12:35:38;4.70;;;2.55;;
37409;SDS011;23275;48.914;12.566;2023-12-29T12:38:14;5.05;;;2.55;;
37409;SDS011;23275;48.914;12.566;2023-12-29T12:40:49;4.88;;;2.47;;
37409;SDS011;23275;48.914;12.566;2023-12-29T12:43:15;4.07;;;2.13;;
37409;SDS011;23275;48.914;12.566;2023-12-29T12:45:47;6.95;;;2.83;;
37409;SDS011;23275;48.914;12.566;2023-12-29T12:48:22;4.57;;;2.50;;
37409;SDS011;23275;48.914;12.566;2023-12-29T12:50:54;5.10;;;3.00;;
37409;SDS011;23275;48.914;12.566;2023-12-29T12:53:21;5.97;;;2.67;;
37409;SDS011;23275;48.914;12.566;2023-12-29T12:55:48;6.57;;;2.60;;
37409;SDS011;23275;48.914;12.566;2023-12-29T12:58:16;4.93;;;2.78;;
37409;SDS011;23275;48.914;12.566;2023-12-29T13:00:42;7.90;;;2.88;;
37409;SDS011;23275;48.914;12.566;2023-12-29T13:03:08;7.20;;;3.47;;
37409;SDS011;23275;48.914;12.566;2023-12-29T13:05:35;5.93;;;3.55;;
37409;SDS011;23275;48.914;12.566;2023-12-29T13:08:01;5.90;;;3.15;;
37409;SDS011;23275;48.914;12.566;2023-12-29T13:10:28;6.32;;;3.35;;
37409;SDS011;23275;48.914;12.566;2023-12-29T13:12:55;6.65;;;3.40;;
37409;SDS011;23275;48.914;12.566;2023-12-29T13:15:21;4.85;;;3.00;;
37409;SDS011;23275;48.914;12.566;2023-12-29T13:17:51;5.55;;;3.00;;
37409;SDS011;23275;48.914;12.566;2023-12-29T13:20:20;7.15;;;3.38;;
37409;SDS011;23275;48.914;12.566;2023-12-29T13:22:46;5.07;;;3.17;;
37409;SDS011;23275;48.914;12.566;2023-12-29T13:25:17;6.00;;;3.40;;
37409;SDS011;23275;48.914;12.566;2023-12-29T13:27:45;5.68;;;3.40;;
37409;SDS011;23275;48.914;12.566;2023-12-29T13:30:12;5.10;;;2.85;;
37409;SDS011;23275;48.914;12.566;2023-12-29T13:32:39;7.70;;;3.60;;
37409;SDS011;23275;48.914;12.566;2023-12-29T13:40:45;6.20;;;3.10;;
37409;SDS011;23275;48.914;12.566;2023-12-29T13:42:54;5.35;;;3.00;;
37409;SDS011;23275;48.914;12.566;2023-12-29T13:45:24;5.80;;;3.15;;
37409;SDS011;23275;48.914;12.566;2023-12-29T13:47:51;6.43;;;3.28;;
37409;SDS011;23275;48.914;12.566;2023-12-29T13:50:18;6.80;;;3.00;;
37409;SDS011;23275;48.914;12.566;2023-12-29T13:52:47;6.15;;;3.38;;
37409;SDS011;23275;48.914;12.566;2023-12-29T13:55:24;7.50;;;3.92;;
37409;SDS011;23275;48.914;12.566;2023-12-29T13:57:52;6.88;;;4.47;;
37409;SDS011;23275;48.914;12.566;2023-12-29T14:00:20;7.22;;;4.38;;
37409;SDS011;23275;48.914;12.566;2023-12-29T14:05:43;14.20;;;7.97;;
37409;SDS011;23275;48.914;12.566;2023-12-29T14:11:10;8.50;;;4.80;;
37409;SDS011;23275;48.914;12.566;2023-12-29T14:13:42;11.48;;;6.57;;
37409;SDS011;23275;48.914;12.566;2023-12-29T14:16:09;10.05;;;5.05;;
37409;SDS011;23275;48.914;12.566;2023-12-29T14:23:57;7.75;;;3.08;;
37409;SDS011;23275;48.914;12.566;2023-12-29T14:26:27;10.02;;;4.07;;
37409;SDS011;23275;48.914;12.566;2023-12-29T14:29:02;10.00;;;3.10;;
37409;SDS011;23275;48.914;12.566;2023-12-29T14:31:30;7.80;;;3.05;;
37409;SDS011;23275;48.914;12.566;2023-12-29T14:34:01;8.55;;;3.20;;
37409;SDS011;23275;48.914;12.566;2023-12-29T14:36:28;9.57;;;4.53;;
37409;SDS011;23275;48.914;12.566;2023-12-29T14:38:54;11.35;;;5.60;;
37409;SDS011;23275;48.914;12.566;2023-12-29T14:41:19;13.40;;;5.75;;
37409;SDS011;23275;48.914;12.566;2023-12-29T14:43:45;12.07;;;3.55;;
37409;SDS011;23275;48.914;12.566;2023-12-29T14:46:11;11.23;;;4.10;;
37409;SDS011;23275;48.914;12.566;2023-12-29T14:48:37;3.80;;;1.75;;
37409;SDS011;23275;48.914;12.566;2023-12-29T14:51:03;7.20;;;2.85;;
37409;SDS011;23275;48.914;12.566;2023-12-29T14:53:29;6.05;;;2.60;;
37409;SDS011;23275;48.914;12.566;2023-12-29T14:55:55;10.30;;;4.10;;
37409;SDS011;23275;48.914;12.566;2023-12-29T14:58:20;10.13;;;4.28;;
37409;SDS011;23275;48.914;12.566;2023-12-29T15:00:46;6.15;;;2.22;;
37409;SDS011;23275;48.914;12.566;2023-12-29T15:03:12;9.23;;;3.60;;